createdAt,value
2022-08-24T00:02:06.935Z,80.96
2022-08-24T00:04:36.024Z,81.33
2022-08-24T00:07:07.141Z,81.01
2022-08-24T00:09:52.903Z,80.48
2022-08-24T00:12:21.773Z,80.67
2022-08-24T00:14:51.178Z,81.06
2022-08-24T00:17:21.360Z,81.54
2022-08-24T00:19:50.383Z,81.77
2022-08-24T00:22:19.580Z,81.27
2022-08-24T00:24:49.009Z,80.75
2022-08-24T00:27:17.882Z,80.91
2022-08-24T00:29:46.924Z,81.79
2022-08-24T00:32:16.402Z,81.30
2022-08-24T00:34:58.991Z,81.60
2022-08-24T00:37:30.782Z,81.63
2022-08-24T00:40:03.312Z,81.55
2022-08-24T00:42:32.888Z,81.73
2022-08-24T00:45:02.306Z,81.86
2022-08-24T00:47:47.666Z,82.62
2022-08-24T00:50:41.460Z,82.59
2022-08-24T00:53:17.105Z,82.93
2022-08-24T00:55:57.329Z,83.46
2022-08-24T00:58:40.192Z,82.85
2022-08-24T01:01:10.363Z,82.77
2022-08-24T01:03:39.601Z,82.64
2022-08-24T01:06:09.619Z,83.08
2022-08-24T01:08:38.829Z,83.38
2022-08-24T01:11:15.410Z,83.31
2022-08-24T01:13:50.676Z,83.44
2022-08-24T01:16:40.299Z,83.20
2022-08-24T01:19:36.194Z,82.68
2022-08-24T01:22:16.454Z,82.39
2022-08-24T01:24:49.678Z,82.61
2022-08-24T01:27:20.487Z,82.56
2022-08-24T01:29:59.922Z,83.77
2022-08-24T01:32:29.011Z,83.98
2022-08-24T01:34:58.327Z,83.45
2022-08-24T01:37:27.315Z,83.56
2022-08-24T01:39:59.667Z,82.97
2022-08-24T01:42:30.705Z,82.68
2022-08-24T01:45:00.210Z,79.81
2022-08-24T01:47:29.621Z,76.87
2022-08-24T01:49:59.891Z,72.55
2022-08-24T01:52:43.372Z,69.44
2022-08-24T01:55:19.792Z,66.34
2022-08-24T01:57:51.867Z,64.57
2022-08-24T02:00:20.942Z,63.08
2022-08-24T02:02:52.532Z,61.83
2022-08-24T02:05:21.575Z,60.47
2022-08-24T02:07:53.254Z,59.45
2022-08-24T02:10:24.270Z,58.73
2022-08-24T02:13:02.822Z,58.30
2022-08-24T02:15:39.629Z,57.57
2022-08-24T02:18:15.382Z,57.06
2022-08-24T02:20:45.818Z,56.28
2022-08-24T02:23:14.516Z,55.41
2022-08-24T02:25:43.981Z,54.47
2022-08-24T02:28:13.180Z,53.41
2022-08-24T02:30:42.159Z,53.93
2022-08-24T02:33:11.181Z,52.52
2022-08-24T02:35:41.735Z,51.55
2022-08-24T02:38:11.118Z,51.74
2022-08-24T02:40:40.937Z,50.17
2022-08-24T02:43:10.709Z,50.19
2022-08-24T02:45:49.590Z,51.26
2022-08-24T02:48:21.342Z,50.93
2022-08-24T02:50:52.292Z,49.80
2022-08-24T02:53:24.034Z,48.55
2022-08-24T02:55:53.999Z,50.53
2022-08-24T02:58:23.131Z,49.81
2022-08-24T03:00:53.203Z,50.01
2022-08-24T03:03:22.516Z,48.92
2022-08-24T03:05:51.406Z,52.04
2022-08-24T03:08:23.533Z,50.18
2022-08-24T03:10:53.413Z,48.35
2022-08-24T03:13:21.984Z,48.87
2022-08-24T03:15:52.068Z,52.05
2022-08-24T03:18:20.956Z,51.28
2022-08-24T03:20:59.388Z,48.86
2022-08-24T03:23:28.617Z,49.78
2022-08-24T03:26:04.124Z,49.66
2022-08-24T03:28:32.805Z,50.32
2022-08-24T03:31:01.763Z,52.12
2022-08-24T03:33:30.995Z,50.00
2022-08-24T03:35:59.883Z,49.42
2022-08-24T03:38:29.198Z,49.30
2022-08-24T03:40:57.805Z,51.09
2022-08-24T03:43:44.684Z,49.35
2022-08-24T03:46:15.479Z,47.64
2022-08-24T03:48:45.244Z,47.60
2022-08-24T03:51:22.041Z,45.83
2022-08-24T03:53:52.581Z,46.75
2022-08-24T03:56:24.413Z,46.56
2022-08-24T03:58:54.415Z,47.37
2022-08-24T04:01:26.088Z,47.09
2022-08-24T04:03:56.202Z,46.34
2022-08-24T04:06:30.424Z,44.55
2022-08-24T04:08:59.834Z,45.11
2022-08-24T04:11:30.339Z,42.69
2022-08-24T04:13:59.945Z,44.10
2022-08-24T04:16:30.812Z,43.93
2022-08-24T04:19:14.935Z,43.69
2022-08-24T04:21:45.086Z,42.89
2022-08-24T04:24:15.743Z,41.87
2022-08-24T04:26:46.104Z,41.79
2022-08-24T04:29:20.199Z,43.63
2022-08-24T04:31:53.269Z,45.10
2022-08-24T04:34:22.673Z,41.88
2022-08-24T04:36:52.501Z,41.51
2022-08-24T04:39:21.025Z,43.57
2022-08-24T04:42:18.679Z,44.36
2022-08-24T04:44:47.539Z,42.33
2022-08-24T04:47:16.680Z,42.10
2022-08-24T04:49:46.762Z,40.62
2022-08-24T04:52:15.858Z,41.16
2022-08-24T04:54:44.938Z,40.24
2022-08-24T04:57:19.596Z,40.43
2022-08-24T04:59:49.100Z,41.24
2022-08-24T05:02:19.077Z,40.60
2022-08-24T05:04:50.521Z,42.23
2022-08-24T05:07:20.494Z,42.23
2022-08-24T05:09:52.427Z,41.92
2022-08-24T05:12:21.864Z,42.89
2022-08-24T05:15:03.034Z,41.65
2022-08-24T05:17:37.597Z,41.79
2022-08-24T05:20:06.427Z,41.69
2022-08-24T05:22:35.375Z,41.02
2022-08-24T05:25:05.695Z,40.84
2022-08-24T05:27:36.070Z,42.54
2022-08-24T05:30:06.472Z,43.04
2022-08-24T05:32:34.899Z,42.25
2022-08-24T05:35:05.591Z,42.71
2022-08-24T05:37:41.582Z,39.97
2022-08-24T05:40:20.054Z,38.99
2022-08-24T05:42:52.126Z,39.01
2022-08-24T05:45:21.657Z,38.73
2022-08-24T05:47:51.877Z,39.23
2022-08-24T05:50:43.409Z,38.28
2022-08-24T05:53:13.980Z,39.35
2022-08-24T05:55:42.930Z,42.08
2022-08-24T05:58:13.101Z,41.37
2022-08-24T06:00:52.697Z,40.91
2022-08-24T06:03:21.355Z,40.06
2022-08-24T06:05:53.929Z,38.95
2022-08-24T06:08:23.203Z,39.14
2022-08-24T06:10:51.926Z,38.35
2022-08-24T06:13:20.724Z,39.00
2022-08-24T06:16:10.985Z,38.57
2022-08-24T06:18:40.042Z,40.45
2022-08-24T06:21:14.409Z,39.82
2022-08-24T06:23:46.265Z,38.08
2022-08-24T06:26:33.338Z,38.39
2022-08-24T06:29:03.647Z,39.22
2022-08-24T06:31:39.902Z,36.92
2022-08-24T06:34:19.216Z,38.92
2022-08-24T06:36:49.496Z,36.88
2022-08-24T06:39:18.295Z,36.71
2022-08-24T06:41:47.871Z,36.41
2022-08-24T06:44:30.070Z,37.68
2022-08-24T06:47:07.600Z,35.51
2022-08-24T06:49:38.707Z,36.53
2022-08-24T06:52:07.339Z,37.56
2022-08-24T06:54:36.238Z,36.66
2022-08-24T06:57:06.121Z,36.60
2022-08-24T06:59:35.091Z,37.25
2022-08-24T07:02:03.978Z,37.77
2022-08-24T07:04:35.787Z,37.58
2022-08-24T07:07:07.446Z,38.83
2022-08-24T07:09:37.142Z,36.81
2022-08-24T07:12:06.306Z,38.63
2022-08-24T07:14:35.705Z,37.50
2022-08-24T07:17:04.498Z,37.61
2022-08-24T07:19:33.861Z,36.00
2022-08-24T07:22:03.153Z,36.35
2022-08-24T07:24:32.017Z,37.05
2022-08-24T07:27:02.074Z,36.34
2022-08-24T07:29:47.313Z,35.78
2022-08-24T07:32:19.446Z,34.82
2022-08-24T07:34:48.361Z,35.56
2022-08-24T07:37:18.500Z,35.58
2022-08-24T07:39:49.854Z,37.56
2022-08-24T07:42:28.160Z,36.51
2022-08-24T07:45:01.067Z,36.52
2022-08-24T07:47:39.987Z,37.36
2022-08-24T07:50:25.431Z,36.21
2022-08-24T07:52:54.195Z,36.41
2022-08-24T07:55:23.053Z,36.12
2022-08-24T07:57:54.957Z,37.21
2022-08-24T08:00:24.012Z,38.32
2022-08-24T08:02:58.221Z,37.68
2022-08-24T08:05:27.219Z,36.75
2022-08-24T08:07:59.291Z,36.09
2022-08-24T08:10:31.704Z,36.32
2022-08-24T08:13:00.544Z,36.26
2022-08-24T08:15:29.653Z,36.40
2022-08-24T08:18:06.611Z,36.91
2022-08-24T08:20:40.541Z,37.52
2022-08-24T08:23:29.215Z,36.01
2022-08-24T08:26:20.905Z,37.53
2022-08-24T08:29:15.953Z,36.98
2022-08-24T08:31:44.664Z,37.47
2022-08-24T08:34:15.172Z,36.54
2022-08-24T08:36:45.251Z,36.76
2022-08-24T08:39:18.913Z,37.24
2022-08-24T08:42:31.850Z,36.73
2022-08-24T08:45:27.097Z,37.25
2022-08-24T08:48:51.818Z,36.89
2022-08-24T08:51:52.818Z,36.46
2022-08-24T08:55:03.072Z,38.21
2022-08-24T08:57:38.047Z,37.20
2022-08-24T09:00:15.481Z,37.40
2022-08-24T09:02:57.131Z,37.57
2022-08-24T09:06:09.912Z,37.58
2022-08-24T09:09:22.639Z,38.05
2022-08-24T09:12:29.186Z,38.09
2022-08-24T09:15:27.071Z,38.21
2022-08-24T09:18:17.711Z,37.53
2022-08-24T09:20:51.473Z,38.03
2022-08-24T09:23:55.066Z,37.77
2022-08-24T09:26:27.735Z,37.53
2022-08-24T09:29:10.749Z,37.32
2022-08-24T09:32:09.796Z,38.50
2022-08-24T09:35:06.817Z,37.76
2022-08-24T09:37:45.138Z,37.31
2022-08-24T09:40:43.439Z,39.03
2022-08-24T09:43:58.351Z,37.94
2022-08-24T09:47:00.416Z,37.30
2022-08-24T09:49:51.464Z,38.07
2022-08-24T09:52:25.956Z,37.41
2022-08-24T09:55:25.366Z,37.44
2022-08-24T09:58:14.377Z,38.96
2022-08-24T10:01:00.336Z,38.30
2022-08-24T10:04:06.916Z,38.85
2022-08-24T10:06:47.882Z,38.47
2022-08-24T10:09:39.369Z,38.44
2022-08-24T10:12:33.698Z,39.01
2022-08-24T10:15:12.617Z,39.69
2022-08-24T10:17:47.104Z,38.72
2022-08-24T10:20:26.444Z,39.12
2022-08-24T10:23:13.453Z,39.80
2022-08-24T10:25:53.484Z,38.82
2022-08-24T10:29:00.608Z,38.39
2022-08-24T10:31:49.903Z,38.44
2022-08-24T10:34:36.657Z,39.52
2022-08-24T10:37:17.948Z,40.27
2022-08-24T10:40:02.000Z,39.64
2022-08-24T10:42:53.557Z,38.92
2022-08-24T10:45:35.664Z,39.91
2022-08-24T10:48:33.439Z,39.85
2022-08-24T10:51:37.023Z,39.74
2022-08-24T10:54:05.884Z,40.59
2022-08-24T10:56:43.505Z,40.38
2022-08-24T10:59:24.263Z,40.34
2022-08-24T11:02:09.617Z,41.64
2022-08-24T11:04:42.238Z,41.31
2022-08-24T11:07:21.285Z,40.34
2022-08-24T11:09:59.485Z,40.42
2022-08-24T11:12:34.417Z,40.47
2022-08-24T11:15:10.534Z,40.71
2022-08-24T11:18:05.097Z,41.25
2022-08-24T11:20:43.179Z,41.19
2022-08-24T11:23:25.557Z,40.52
2022-08-24T11:26:20.214Z,41.77
2022-08-24T11:28:55.511Z,41.64
2022-08-24T11:31:35.634Z,43.31
2022-08-24T11:34:09.048Z,40.46
2022-08-24T11:36:40.204Z,40.95
2022-08-24T11:39:37.731Z,41.78
2022-08-24T11:42:37.306Z,41.76
2022-08-24T11:45:33.278Z,41.87
2022-08-24T11:48:32.990Z,41.22
2022-08-24T11:51:13.653Z,42.16
2022-08-24T11:54:26.124Z,41.93
2022-08-24T11:57:10.385Z,42.83
2022-08-24T11:59:55.918Z,42.00
2022-08-24T12:02:35.986Z,41.27
2022-08-24T12:05:24.774Z,41.41
2022-08-24T12:08:22.313Z,41.63
2022-08-24T12:11:38.306Z,42.31
2022-08-24T12:14:23.935Z,41.73
2022-08-24T12:16:55.074Z,41.83
2022-08-24T12:19:31.924Z,42.31
2022-08-24T12:22:05.047Z,42.36
2022-08-24T12:24:47.895Z,42.45
2022-08-24T12:27:25.399Z,42.72
2022-08-24T12:30:13.917Z,41.82
2022-08-24T12:33:04.033Z,41.75
2022-08-24T12:35:37.707Z,42.34
2022-08-24T12:38:09.293Z,41.91
2022-08-24T12:40:43.643Z,42.68
2022-08-24T12:43:24.106Z,42.80
2022-08-24T12:45:56.134Z,42.80
2022-08-24T12:48:55.137Z,43.45
2022-08-24T12:52:01.135Z,42.95
2022-08-24T12:54:35.843Z,43.22
2022-08-24T12:57:25.284Z,43.79
2022-08-24T12:59:58.501Z,43.98
2022-08-24T13:02:33.491Z,44.52
2022-08-24T13:05:17.196Z,44.55
2022-08-24T13:07:51.295Z,45.73
2022-08-24T13:10:26.213Z,45.57
2022-08-24T13:13:09.346Z,45.71
2022-08-24T13:15:43.391Z,46.25
2022-08-24T13:18:13.555Z,46.34
2022-08-24T13:20:44.827Z,46.20
2022-08-24T13:23:19.517Z,46.96
2022-08-24T13:26:12.299Z,47.25
2022-08-24T13:28:46.547Z,47.42
2022-08-24T13:31:32.050Z,48.84
2022-08-24T13:34:22.631Z,49.54
2022-08-24T13:37:11.235Z,50.05
2022-08-24T13:40:07.234Z,50.65
2022-08-24T13:43:03.750Z,51.49
2022-08-24T13:45:47.099Z,52.00
2022-08-24T13:48:44.080Z,52.56
2022-08-24T13:51:43.257Z,53.20
2022-08-24T13:54:40.466Z,53.97
2022-08-24T13:57:18.832Z,54.82
2022-08-24T14:00:13.442Z,55.56
2022-08-24T14:02:51.339Z,55.79
2022-08-24T14:06:07.369Z,56.46
2022-08-24T14:08:54.180Z,57.01
2022-08-24T14:11:57.469Z,57.46
2022-08-24T14:14:46.717Z,58.05
2022-08-24T14:17:44.997Z,58.25
2022-08-24T14:20:34.642Z,58.16
2022-08-24T14:23:22.374Z,58.27
2022-08-24T14:26:12.798Z,58.67
2022-08-24T14:28:44.807Z,59.45
2022-08-24T14:31:30.374Z,60.22
2022-08-24T14:34:23.299Z,60.23
2022-08-24T14:37:26.925Z,60.46
2022-08-24T14:39:59.210Z,61.45
2022-08-24T14:42:38.177Z,61.05
2022-08-24T14:45:08.389Z,61.55
2022-08-24T14:48:03.010Z,62.17
2022-08-24T14:50:40.131Z,61.50
2022-08-24T14:53:42.735Z,61.69
2022-08-24T14:56:30.439Z,62.18
2022-08-24T14:59:34.068Z,62.36
2022-08-24T15:02:23.837Z,62.78
2022-08-24T15:05:02.396Z,63.42
2022-08-24T15:07:33.557Z,63.51
2022-08-24T15:10:04.130Z,63.53
2022-08-24T15:12:49.870Z,63.12
2022-08-24T15:15:40.769Z,63.80
2022-08-24T15:18:18.326Z,63.62
2022-08-24T15:21:17.585Z,64.60
2022-08-24T15:24:17.332Z,65.38
2022-08-24T15:26:51.278Z,65.25
2022-08-24T15:29:51.157Z,65.00
2022-08-24T15:32:20.719Z,65.72
2022-08-24T15:34:59.081Z,65.12
2022-08-24T15:37:27.570Z,66.11
2022-08-24T15:39:56.349Z,65.31
2022-08-24T15:42:25.927Z,66.00
2022-08-24T15:44:54.548Z,66.33
2022-08-24T15:47:29.287Z,66.71
2022-08-24T15:50:23.417Z,67.06
2022-08-24T15:52:55.778Z,67.52
2022-08-24T15:55:44.244Z,67.88
2022-08-24T15:58:31.028Z,67.79
2022-08-24T16:01:37.666Z,67.43
2022-08-24T16:04:11.424Z,66.93
2022-08-24T16:06:45.923Z,67.03
2022-08-24T16:09:14.189Z,66.92
2022-08-24T16:11:49.944Z,67.72
2022-08-24T16:14:29.534Z,67.63
2022-08-24T16:16:59.867Z,69.04
2022-08-24T16:19:33.867Z,68.75
2022-08-24T16:22:07.855Z,68.58
2022-08-24T16:24:41.134Z,67.96
2022-08-24T16:27:13.377Z,68.46
2022-08-24T16:29:46.354Z,68.59
2022-08-24T16:32:33.190Z,68.28
2022-08-24T16:35:25.637Z,69.08
2022-08-24T16:37:56.349Z,68.44
2022-08-24T16:40:25.499Z,68.96
2022-08-24T16:42:55.893Z,68.81
2022-08-24T16:45:24.467Z,68.67
2022-08-24T16:47:53.194Z,68.15
2022-08-24T16:50:22.229Z,68.17
2022-08-24T16:52:56.618Z,69.38
2022-08-24T16:55:26.301Z,70.26
2022-08-24T16:57:56.517Z,70.05
2022-08-24T17:00:26.243Z,69.18
2022-08-24T17:02:55.731Z,70.08
2022-08-24T17:05:25.418Z,70.84
2022-08-24T17:07:55.024Z,71.00
2022-08-24T17:10:24.823Z,71.12
2022-08-24T17:12:53.380Z,69.96
2022-08-24T17:15:22.830Z,69.77
2022-08-24T17:18:04.442Z,69.46
2022-08-24T17:20:33.458Z,70.72
2022-08-24T17:23:02.087Z,70.41
2022-08-24T17:25:31.752Z,69.76
2022-08-24T17:28:01.902Z,69.75
2022-08-24T17:30:31.052Z,69.40
2022-08-24T17:33:00.709Z,70.68
2022-08-24T17:35:29.389Z,71.79
2022-08-24T17:37:59.030Z,72.27
2022-08-24T17:40:30.691Z,72.99
2022-08-24T17:42:59.324Z,72.94
2022-08-24T17:45:27.888Z,73.20
2022-08-24T17:47:56.733Z,72.47
2022-08-24T17:50:26.025Z,72.14
2022-08-24T17:52:58.819Z,72.90
2022-08-24T17:55:29.546Z,72.15
2022-08-24T17:57:58.819Z,71.88
2022-08-24T18:00:27.450Z,71.86
2022-08-24T18:02:56.289Z,72.44
2022-08-24T18:05:25.228Z,73.32
2022-08-24T18:07:56.371Z,73.84
2022-08-24T18:10:28.737Z,73.73
2022-08-24T18:12:58.710Z,73.32
2022-08-24T18:15:35.845Z,72.50
2022-08-24T18:18:09.857Z,72.37
2022-08-24T18:20:41.737Z,73.05
2022-08-24T18:23:12.054Z,73.01
2022-08-24T18:25:47.837Z,73.28
2022-08-24T18:28:18.629Z,72.52
2022-08-24T18:30:47.577Z,73.49
2022-08-24T18:33:16.239Z,73.34
2022-08-24T18:35:46.758Z,73.87
2022-08-24T18:38:15.397Z,73.71
2022-08-24T18:40:52.272Z,73.45
2022-08-24T18:43:24.604Z,73.07
2022-08-24T18:45:54.584Z,73.18
2022-08-24T18:48:23.943Z,73.92
2022-08-24T18:50:53.649Z,73.95
2022-08-24T18:53:26.422Z,73.68
2022-08-24T18:55:55.300Z,72.83
2022-08-24T18:58:23.873Z,72.88
2022-08-24T19:00:52.508Z,73.30
2022-08-24T19:03:23.151Z,72.09
2022-08-24T19:05:51.775Z,72.57
2022-08-24T19:08:20.278Z,72.58
2022-08-24T19:10:48.773Z,73.29
2022-08-24T19:13:19.204Z,72.47
2022-08-24T19:15:49.370Z,73.53
2022-08-24T19:18:19.619Z,73.37
2022-08-24T19:20:51.536Z,73.21
2022-08-24T19:23:24.198Z,73.39
2022-08-24T19:25:53.632Z,74.10
2022-08-24T19:28:23.447Z,73.45
2022-08-24T19:30:56.499Z,73.27
2022-08-24T19:33:30.000Z,73.63
2022-08-24T19:36:02.351Z,74.68
2022-08-24T19:38:31.175Z,74.75
2022-08-24T19:41:00.438Z,74.20
2022-08-24T19:43:30.608Z,75.02
2022-08-24T19:46:04.794Z,75.62
2022-08-24T19:48:35.945Z,75.32
2022-08-24T19:51:07.768Z,74.61
2022-08-24T19:53:38.299Z,75.13
2022-08-24T19:56:08.110Z,74.68
2022-08-24T19:58:54.480Z,74.61
2022-08-24T20:01:29.510Z,74.78
2022-08-24T20:03:58.822Z,74.18
2022-08-24T20:06:28.160Z,74.63
2022-08-24T20:08:56.781Z,74.76
2022-08-24T20:11:25.522Z,75.04
2022-08-24T20:13:55.415Z,74.74
2022-08-24T20:16:27.714Z,75.67
2022-08-24T20:18:56.638Z,75.43
2022-08-24T20:21:28.293Z,74.58
2022-08-24T20:24:01.290Z,75.97
2022-08-24T20:26:34.218Z,76.46
2022-08-24T20:29:03.137Z,76.06
2022-08-24T20:31:31.756Z,76.23
2022-08-24T20:34:00.288Z,76.21
2022-08-24T20:36:34.990Z,75.81
2022-08-24T20:39:03.431Z,75.14
2022-08-24T20:41:33.180Z,75.69
2022-08-24T20:44:02.867Z,75.44
2022-08-24T20:46:32.603Z,75.31
2022-08-24T20:49:02.447Z,75.78
2022-08-24T20:51:31.580Z,76.00
2022-08-24T20:54:02.007Z,77.14
2022-08-24T20:56:33.394Z,76.48
2022-08-24T20:59:04.570Z,76.55
2022-08-24T21:01:33.924Z,76.60
2022-08-24T21:04:05.253Z,75.69
2022-08-24T21:06:35.175Z,75.96
2022-08-24T21:09:07.098Z,75.94
2022-08-24T21:11:41.059Z,77.24
2022-08-24T21:14:09.638Z,78.29
2022-08-24T21:16:40.416Z,77.50
2022-08-24T21:19:12.248Z,76.92
2022-08-24T21:21:42.395Z,77.94
2022-08-24T21:24:12.143Z,77.77
2022-08-24T21:26:41.065Z,77.77
2022-08-24T21:29:11.176Z,76.97
2022-08-24T21:31:39.937Z,76.19
2022-08-24T21:34:27.999Z,76.77
2022-08-24T21:36:56.589Z,76.94
2022-08-24T21:39:25.284Z,77.50
2022-08-24T21:41:54.305Z,77.38
2022-08-24T21:44:23.342Z,77.48
2022-08-24T21:46:52.678Z,78.64
2022-08-24T21:49:22.285Z,78.52
2022-08-24T21:51:50.892Z,78.38
2022-08-24T21:54:19.558Z,77.91
2022-08-24T21:56:48.607Z,77.84
2022-08-24T21:59:17.421Z,77.78
2022-08-24T22:01:47.049Z,78.01
2022-08-24T22:04:16.063Z,78.07
2022-08-24T22:06:45.029Z,77.62
2022-08-24T22:09:14.388Z,76.86
2022-08-24T22:11:43.384Z,76.75
2022-08-24T22:14:12.092Z,76.97
2022-08-24T22:16:40.565Z,77.42
2022-08-24T22:19:09.342Z,77.40
2022-08-24T22:21:47.599Z,77.52
2022-08-24T22:24:17.495Z,77.56
2022-08-24T22:26:46.783Z,77.46
2022-08-24T22:29:15.898Z,77.46
2022-08-24T22:31:45.676Z,77.48
2022-08-24T22:34:20.775Z,78.07
2022-08-24T22:36:50.478Z,77.75
2022-08-24T22:39:19.539Z,77.95
2022-08-24T22:41:47.948Z,77.36
2022-08-24T22:44:22.684Z,78.50
2022-08-24T22:46:58.604Z,78.35
2022-08-24T22:49:30.854Z,78.37
2022-08-24T22:52:00.165Z,78.33
2022-08-24T22:54:29.143Z,78.33
2022-08-24T22:56:58.236Z,78.58
2022-08-24T22:59:30.279Z,79.23
2022-08-24T23:01:59.041Z,78.45
2022-08-24T23:04:32.786Z,78.66
2022-08-24T23:07:02.723Z,78.37
2022-08-24T23:09:44.160Z,78.21
2022-08-24T23:12:18.868Z,77.63
2022-08-24T23:14:48.306Z,77.57
2022-08-24T23:17:18.208Z,78.23
2022-08-24T23:20:01.909Z,78.81
2022-08-24T23:22:33.594Z,78.35
2022-08-24T23:25:02.600Z,79.12
2022-08-24T23:27:32.975Z,78.61
2022-08-24T23:30:11.637Z,79.04
2022-08-24T23:32:40.888Z,79.58
2022-08-24T23:35:10.162Z,80.24
2022-08-24T23:37:38.837Z,79.87
2022-08-24T23:40:08.188Z,78.97
2022-08-24T23:42:36.983Z,79.35
2022-08-24T23:45:07.771Z,79.51
2022-08-24T23:47:39.795Z,79.01
2022-08-24T23:50:11.056Z,78.62
2022-08-24T23:52:41.324Z,79.09
2022-08-24T23:55:20.413Z,79.57
2022-08-24T23:57:52.063Z,79.83
